Time;durP1;ratioP1;P1;durP2;ratioP2;P2;SDS_P1;SDS_P2;PMS_P1;PMS_P2;Temp;Humidity;BMP_temperature;BMP_pressure;BME280_temperature;BME280_humidity;BME280_pressure;Samples;Min_cycle;Max_cycle;Signal;HPM_P1;HPM_P2
2022/08/05 00:01:47;;;;;;;7.80;3.33;;;;;;;;;;5054252;28;20072;-68
2022/08/05 00:04:13;;;;;;;3.28;2.67;;;;;;;;;;5048457;28;20140;-68
2022/08/05 00:06:38;;;;;;;6.40;3.67;;;;;;;;;;5067385;28;20448;-68
2022/08/05 00:09:04;;;;;;;3.40;3.10;;;;;;;;;;5069452;28;20117;-68
2022/08/05 00:11:30;;;;;;;4.85;2.70;;;;;;;;;;5068866;28;20060;-69
2022/08/05 00:13:56;;;;;;;5.40;2.88;;;;;;;;;;5069310;28;20068;-67
2022/08/05 00:16:21;;;;;;;3.30;2.70;;;;;;;;;;5063946;28;20044;-68
2022/08/05 00:18:48;;;;;;;6.43;3.00;;;;;;;;;;5069511;28;20467;-68
2022/08/05 00:21:15;;;;;;;3.55;2.65;;;;;;;;;;5069283;28;20136;-68
2022/08/05 00:23:43;;;;;;;6.72;2.95;;;;;;;;;;5068656;28;20124;-68
2022/08/05 00:26:09;;;;;;;3.90;2.40;;;;;;;;;;5068023;28;20056;-67
2022/08/05 00:28:35;;;;;;;3.95;2.63;;;;;;;;;;5058259;28;20088;-68
2022/08/05 00:31:01;;;;;;;2.42;2.22;;;;;;;;;;5061215;28;20045;-68
2022/08/05 00:33:26;;;;;;;3.75;2.40;;;;;;;;;;5048325;28;20056;-70
2022/08/05 00:35:51;;;;;;;4.85;2.53;;;;;;;;;;5049256;28;20556;-68
2022/08/05 00:38:17;;;;;;;5.13;2.40;;;;;;;;;;5047014;28;20513;-68
2022/08/05 00:40:56;;;;;;;3.08;2.60;;;;;;;;;;5066414;28;20465;-68
2022/08/05 00:43:21;;;;;;;5.45;2.95;;;;;;;;;;5068002;28;20060;-67
2022/08/05 00:45:47;;;;;;;2.95;2.60;;;;;;;;;;5060378;28;20049;-68
2022/08/05 00:48:16;;;;;;;3.40;2.60;;;;;;;;;;5047336;28;20099;-68
2022/08/05 00:50:43;;;;;;;5.25;3.10;;;;;;;;;;5058271;28;20048;-68
2022/08/05 00:53:09;;;;;;;4.47;3.15;;;;;;;;;;5068857;28;20048;-68
2022/08/05 00:55:34;;;;;;;4.28;3.08;;;;;;;;;;5068454;28;20060;-67
2022/08/05 00:58:00;;;;;;;3.45;2.72;;;;;;;;;;5069068;28;20494;-68
2022/08/05 01:00:27;;;;;;;3.30;3.00;;;;;;;;;;5061850;28;20095;-68
2022/08/05 01:02:53;;;;;;;5.55;3.30;;;;;;;;;;5040748;28;20074;-68
2022/08/05 01:05:18;;;;;;;7.50;2.97;;;;;;;;;;5048548;28;20045;-68
2022/08/05 01:07:44;;;;;;;3.75;3.00;;;;;;;;;;5048375;28;20053;-67
2022/08/05 01:10:13;;;;;;;4.80;3.17;;;;;;;;;;5049476;28;20131;-67
2022/08/05 01:12:44;;;;;;;3.67;2.90;;;;;;;;;;5068613;28;20079;-67
2022/08/05 01:15:12;;;;;;;5.70;2.67;;;;;;;;;;5071283;28;20093;-67
2022/08/05 01:17:40;;;;;;;4.30;2.80;;;;;;;;;;5051691;28;20053;-67
2022/08/05 01:20:23;;;;;;;4.05;2.83;;;;;;;;;;5050630;28;20049;-67
2022/08/05 01:23:15;;;;;;;5.30;2.90;;;;;;;;;;5062905;28;20131;-67
2022/08/05 01:26:11;;;;;;;5.70;3.30;;;;;;;;;;5071627;28;20048;-67
2022/08/05 01:28:47;;;;;;;9.63;3.50;;;;;;;;;;5072076;28;20044;-68
2022/08/05 01:31:26;;;;;;;6.85;3.10;;;;;;;;;;5062583;28;20045;-67
2022/08/05 01:34:19;;;;;;;5.22;3.22;;;;;;;;;;5054106;28;20399;-68
2022/08/05 01:37:02;;;;;;;3.47;3.03;;;;;;;;;;5071949;28;20041;-67
2022/08/05 01:39:29;;;;;;;4.20;3.10;;;;;;;;;;5071277;28;20198;-68
2022/08/05 01:41:57;;;;;;;3.15;2.63;;;;;;;;;;5072031;28;20056;-67
2022/08/05 01:44:24;;;;;;;5.80;3.47;;;;;;;;;;5060019;28;20044;-67
2022/08/05 01:46:50;;;;;;;3.92;2.80;;;;;;;;;;5056457;28;20114;-67
2022/08/05 01:49:21;;;;;;;3.47;3.15;;;;;;;;;;5051698;28;20041;-68
2022/08/05 01:51:49;;;;;;;4.05;2.85;;;;;;;;;;5051192;28;20037;-68
2022/08/05 01:54:15;;;;;;;8.32;3.15;;;;;;;;;;5050833;28;20118;-67
2022/08/05 01:56:42;;;;;;;5.40;3.47;;;;;;;;;;5070029;28;20044;-67
2022/08/05 01:59:30;;;;;;;3.47;3.13;;;;;;;;;;5071645;28;20974;-67
2022/08/05 02:01:59;;;;;;;6.32;3.10;;;;;;;;;;5052297;28;20128;-67
2022/08/05 02:04:28;;;;;;;3.78;3.35;;;;;;;;;;5063927;28;20047;-67
2022/08/05 02:06:55;;;;;;;8.40;3.30;;;;;;;;;;5049463;28;20067;-67
2022/08/05 02:09:21;;;;;;;7.68;3.25;;;;;;;;;;5071216;28;20119;-67
2022/08/05 02:11:54;;;;;;;3.55;3.25;;;;;;;;;;5070878;28;20344;-67
2022/08/05 02:14:45;;;;;;;8.82;3.03;;;;;;;;;;5071133;28;20037;-67
2022/08/05 02:17:18;;;;;;;4.85;3.20;;;;;;;;;;5058564;28;20075;-67
2022/08/05 02:19:51;;;;;;;5.20;3.17;;;;;;;;;;5070447;28;20513;-67
2022/08/05 02:22:24;;;;;;;6.90;3.45;;;;;;;;;;5071054;28;20055;-68
2022/08/05 02:24:54;;;;;;;8.55;3.05;;;;;;;;;;5071058;28;20063;-68
2022/08/05 02:27:20;;;;;;;4.25;3.47;;;;;;;;;;5068233;28;20048;-67
2022/08/05 02:29:47;;;;;;;5.03;3.63;;;;;;;;;;5069402;28;20044;-67
2022/08/05 02:32:15;;;;;;;6.90;3.92;;;;;;;;;;5053206;28;20094;-67
2022/08/05 02:34:42;;;;;;;8.18;4.35;;;;;;;;;;5050831;28;20059;-68
2022/08/05 02:37:09;;;;;;;5.10;3.40;;;;;;;;;;5050838;28;20045;-67
2022/08/05 02:39:37;;;;;;;6.38;3.35;;;;;;;;;;5058904;28;20044;-67
2022/08/05 02:42:04;;;;;;;5.05;3.40;;;;;;;;;;5070592;28;20071;-67
2022/08/05 02:44:31;;;;;;;3.85;3.30;;;;;;;;;;5070425;28;20501;-67
2022/08/05 02:46:58;;;;;;;7.03;3.35;;;;;;;;;;5054684;28;20045;-67
2022/08/05 02:49:26;;;;;;;6.90;3.58;;;;;;;;;;5049905;28;20041;-67
2022/08/05 02:51:52;;;;;;;5.40;3.78;;;;;;;;;;5069705;28;20048;-67
2022/08/05 02:54:20;;;;;;;3.63;3.30;;;;;;;;;;5070258;28;20135;-67
2022/08/05 02:56:46;;;;;;;6.88;3.88;;;;;;;;;;5070544;28;20161;-67
2022/08/05 02:59:14;;;;;;;6.85;3.80;;;;;;;;;;5070441;28;20044;-67
2022/08/05 03:01:40;;;;;;;5.40;3.40;;;;;;;;;;5065914;28;20036;-67
2022/08/05 03:04:09;;;;;;;6.32;3.28;;;;;;;;;;5069881;28;20090;-67
2022/08/05 03:06:36;;;;;;;4.68;3.30;;;;;;;;;;5070317;28;20040;-67
2022/08/05 03:09:03;;;;;;;5.85;3.30;;;;;;;;;;5068896;28;20041;-67
2022/08/05 03:11:28;;;;;;;6.00;3.47;;;;;;;;;;5066021;28;20053;-67
2022/08/05 03:13:54;;;;;;;7.43;3.38;;;;;;;;;;5069923;28;20044;-67
2022/08/05 03:16:20;;;;;;;4.75;3.70;;;;;;;;;;5058194;28;20132;-67
2022/08/05 03:18:46;;;;;;;8.73;3.72;;;;;;;;;;5050086;28;20049;-69
2022/08/05 03:21:11;;;;;;;3.70;3.35;;;;;;;;;;5050120;28;20056;-67
2022/08/05 03:23:42;;;;;;;8.98;3.67;;;;;;;;;;5058172;28;20185;-67
2022/08/05 03:26:09;;;;;;;14.75;3.92;;;;;;;;;;5068450;28;20042;-67
2022/08/05 03:28:35;;;;;;;3.97;3.10;;;;;;;;;;5069896;28;20072;-67
2022/08/05 03:31:02;;;;;;;4.10;3.53;;;;;;;;;;5061510;28;20044;-67
2022/08/05 03:33:29;;;;;;;6.07;3.78;;;;;;;;;;5047984;28;20052;-70
2022/08/05 03:35:56;;;;;;;5.47;3.40;;;;;;;;;;5061776;28;20059;-67
2022/08/05 03:38:22;;;;;;;5.70;3.58;;;;;;;;;;5069775;28;20044;-67
2022/08/05 03:40:47;;;;;;;4.93;3.90;;;;;;;;;;5069737;28;20391;-67
2022/08/05 03:43:14;;;;;;;7.10;3.53;;;;;;;;;;5069651;28;20060;-67
2022/08/05 03:45:39;;;;;;;3.97;3.47;;;;;;;;;;5059968;28;20037;-67
2022/08/05 03:48:05;;;;;;;7.20;3.65;;;;;;;;;;5061940;28;20056;-67
2022/08/05 03:50:58;;;;;;;4.32;3.45;;;;;;;;;;5068425;28;20040;-67
2022/08/05 03:53:34;;;;;;;5.38;3.83;;;;;;;;;;5065072;28;20101;-66
2022/08/05 03:56:09;;;;;;;6.80;3.53;;;;;;;;;;5074714;28;20052;-67
2022/08/05 03:58:36;;;;;;;6.10;3.40;;;;;;;;;;5067188;28;20127;-68
2022/08/05 04:01:05;;;;;;;5.25;3.50;;;;;;;;;;5052259;28;20486;-67
2022/08/05 04:03:36;;;;;;;4.10;3.65;;;;;;;;;;5066623;28;20045;-68
2022/08/05 04:06:03;;;;;;;5.07;3.70;;;;;;;;;;5069518;28;20056;-67
2022/08/05 04:08:29;;;;;;;5.20;3.50;;;;;;;;;;5056923;28;20052;-67
2022/08/05 04:10:56;;;;;;;4.38;3.45;;;;;;;;;;5041699;28;20223;-67
2022/08/05 04:13:22;;;;;;;4.30;3.65;;;;;;;;;;5037803;28;20052;-68
2022/08/05 04:15:48;;;;;;;7.50;3.65;;;;;;;;;;5036379;28;20076;-67
2022/08/05 04:18:14;;;;;;;9.73;3.67;;;;;;;;;;5038798;28;20132;-67
2022/08/05 04:20:39;;;;;;;5.05;3.70;;;;;;;;;;5039281;28;20051;-68
2022/08/05 04:23:05;;;;;;;6.25;3.60;;;;;;;;;;5045840;28;20491;-67
2022/08/05 04:25:31;;;;;;;9.82;3.75;;;;;;;;;;5038779;28;20076;-67
2022/08/05 04:27:56;;;;;;;4.68;3.50;;;;;;;;;;5039754;28;20059;-67
2022/08/05 04:30:22;;;;;;;5.57;3.75;;;;;;;;;;5039393;28;20130;-67
2022/08/05 04:32:47;;;;;;;6.63;3.53;;;;;;;;;;5039992;28;20044;-67
2022/08/05 04:35:13;;;;;;;6.20;4.00;;;;;;;;;;5039699;28;20032;-68
2022/08/05 04:37:38;;;;;;;3.92;3.50;;;;;;;;;;5037671;28;20056;-67
2022/08/05 04:40:04;;;;;;;9.45;3.97;;;;;;;;;;5039443;28;20048;-67
2022/08/05 04:42:30;;;;;;;4.22;3.83;;;;;;;;;;5040120;28;20080;-67
2022/08/05 04:44:55;;;;;;;8.07;3.72;;;;;;;;;;5041692;28;20040;-68
2022/08/05 04:47:20;;;;;;;7.10;3.58;;;;;;;;;;5041994;28;20143;-68
2022/08/05 04:49:46;;;;;;;6.53;3.70;;;;;;;;;;5042649;28;20554;-69
2022/08/05 04:52:11;;;;;;;6.85;3.85;;;;;;;;;;5040321;28;20578;-67
2022/08/05 04:54:37;;;;;;;6.38;3.58;;;;;;;;;;5042993;28;20052;-68
2022/08/05 04:57:02;;;;;;;5.85;4.03;;;;;;;;;;5042669;28;20044;-68
2022/08/05 04:59:28;;;;;;;5.65;3.83;;;;;;;;;;5042448;28;20487;-72
2022/08/05 05:01:53;;;;;;;7.68;3.80;;;;;;;;;;5042530;28;20072;-69
2022/08/05 05:04:19;;;;;;;4.60;3.63;;;;;;;;;;5043692;28;20052;-68
2022/08/05 05:06:44;;;;;;;4.28;3.58;;;;;;;;;;5042767;28;20073;-67
2022/08/05 05:09:13;;;;;;;5.43;3.50;;;;;;;;;;5043010;28;20511;-67
2022/08/05 05:11:38;;;;;;;6.60;3.65;;;;;;;;;;5042742;28;20128;-68
2022/08/05 05:14:04;;;;;;;5.53;3.30;;;;;;;;;;5042407;28;20144;-68
2022/08/05 05:16:29;;;;;;;7.28;3.50;;;;;;;;;;5042742;28;20064;-65
2022/08/05 05:18:55;;;;;;;4.03;3.30;;;;;;;;;;5043080;28;20051;-68
2022/08/05 05:21:20;;;;;;;5.35;3.65;;;;;;;;;;5043186;28;20041;-66
2022/08/05 05:23:45;;;;;;;6.63;3.72;;;;;;;;;;5041569;28;20106;-67
2022/08/05 05:26:11;;;;;;;4.05;3.47;;;;;;;;;;5043541;28;20092;-69
2022/08/05 05:28:36;;;;;;;6.25;3.72;;;;;;;;;;5041989;28;20044;-68
2022/08/05 05:31:02;;;;;;;4.13;3.72;;;;;;;;;;5042366;28;20067;-67
2022/08/05 05:33:27;;;;;;;6.85;3.90;;;;;;;;;;5042691;28;20036;-68
2022/08/05 05:35:53;;;;;;;3.65;3.33;;;;;;;;;;5041707;28;20125;-68
2022/08/05 05:38:18;;;;;;;5.50;3.30;;;;;;;;;;5042255;28;20056;-71
2022/08/05 05:40:43;;;;;;;5.07;3.30;;;;;;;;;;5042731;28;20487;-70
2022/08/05 05:43:09;;;;;;;7.00;3.30;;;;;;;;;;5042080;28;20435;-67
2022/08/05 05:45:34;;;;;;;4.35;3.40;;;;;;;;;;5041448;28;20050;-70
2022/08/05 05:48:00;;;;;;;3.10;2.80;;;;;;;;;;5042600;28;20056;-69
2022/08/05 05:50:25;;;;;;;4.57;3.22;;;;;;;;;;5038327;28;20060;-70
2022/08/05 05:52:51;;;;;;;3.90;3.28;;;;;;;;;;5038435;28;20048;-68
2022/08/05 05:55:17;;;;;;;6.00;3.10;;;;;;;;;;5038617;28;20041;-67
2022/08/05 05:57:44;;;;;;;5.95;3.20;;;;;;;;;;5039069;28;20052;-68
2022/08/05 06:00:14;;;;;;;3.80;3.13;;;;;;;;;;5039040;28;20087;-70
2022/08/05 06:02:40;;;;;;;4.43;3.28;;;;;;;;;;5039250;28;20144;-69
2022/08/05 06:05:07;;;;;;;3.70;3.40;;;;;;;;;;5040357;28;20059;-70
2022/08/05 06:07:32;;;;;;;6.40;3.15;;;;;;;;;;5039196;28;20128;-68
2022/08/05 06:09:58;;;;;;;9.05;3.67;;;;;;;;;;5038920;28;20055;-68
2022/08/05 06:12:23;;;;;;;6.50;3.30;;;;;;;;;;5039552;28;20985;-69
2022/08/05 06:14:48;;;;;;;6.18;3.15;;;;;;;;;;5040650;28;20422;-69
2022/08/05 06:17:14;;;;;;;6.85;3.22;;;;;;;;;;5041823;28;20040;-69
2022/08/05 06:19:39;;;;;;;4.22;3.03;;;;;;;;;;5040445;28;20064;-68
2022/08/05 06:22:06;;;;;;;3.08;2.60;;;;;;;;;;5042101;28;20714;-69
2022/08/05 06:24:32;;;;;;;4.00;3.20;;;;;;;;;;5041477;28;20196;-70
2022/08/05 06:26:58;;;;;;;5.03;2.53;;;;;;;;;;5040970;28;20977;-69
2022/08/05 06:29:24;;;;;;;2.45;2.25;;;;;;;;;;5040750;28;20140;-70
2022/08/05 06:31:49;;;;;;;6.97;2.30;;;;;;;;;;5041557;28;20053;-71
2022/08/05 06:34:14;;;;;;;2.22;2.03;;;;;;;;;;5041541;28;20045;-68
2022/08/05 06:36:40;;;;;;;3.63;2.55;;;;;;;;;;5040954;28;20184;-68
2022/08/05 06:39:05;;;;;;;4.07;2.05;;;;;;;;;;5041300;28;20033;-68
2022/08/05 06:41:31;;;;;;;4.32;2.28;;;;;;;;;;5040209;28;20049;-69
2022/08/05 06:43:56;;;;;;;4.85;1.92;;;;;;;;;;5041508;28;20057;-69
2022/08/05 06:46:22;;;;;;;2.67;1.90;;;;;;;;;;5040960;28;20052;-69
2022/08/05 06:48:47;;;;;;;7.25;2.10;;;;;;;;;;5041550;28;20055;-68
2022/08/05 06:51:13;;;;;;;3.35;2.17;;;;;;;;;;5040393;28;20084;-69
2022/08/05 06:53:38;;;;;;;4.60;2.20;;;;;;;;;;5040853;28;20041;-69
2022/08/05 06:56:04;;;;;;;3.50;2.13;;;;;;;;;;5040840;28;20503;-69
2022/08/05 06:58:31;;;;;;;4.10;1.85;;;;;;;;;;5041190;28;20061;-68
2022/08/05 07:01:00;;;;;;;2.42;2.25;;;;;;;;;;5041758;28;20083;-69
2022/08/05 07:03:27;;;;;;;5.45;2.00;;;;;;;;;;5040429;28;20056;-69
2022/08/05 07:05:53;;;;;;;2.50;2.00;;;;;;;;;;5040042;28;20079;-68
2022/08/05 07:08:21;;;;;;;4.32;2.03;;;;;;;;;;5039554;28;20655;-69
2022/08/05 07:10:46;;;;;;;5.53;2.10;;;;;;;;;;5036628;28;20055;-69
2022/08/05 07:18:40;;;;;;;2.83;1.92;;;;;;;;;;5035900;28;20148;-68
2022/08/05 07:21:06;;;;;;;3.97;2.08;;;;;;;;;;5036470;28;20269;-70
2022/08/05 07:23:32;;;;;;;2.25;2.00;;;;;;;;;;5035611;28;20049;-69
2022/08/05 07:25:57;;;;;;;3.28;2.10;;;;;;;;;;5036118;28;20037;-68
2022/08/05 07:28:24;;;;;;;2.33;2.03;;;;;;;;;;5035720;28;20057;-70
2022/08/05 07:30:49;;;;;;;3.10;1.90;;;;;;;;;;5036013;28;20118;-68
2022/08/05 07:33:15;;;;;;;3.38;2.30;;;;;;;;;;5036138;28;20048;-69
2022/08/05 07:35:40;;;;;;;5.97;2.20;;;;;;;;;;5035193;28;20091;-70
2022/08/05 07:38:06;;;;;;;5.00;2.35;;;;;;;;;;5038840;28;20672;-71
2022/08/05 07:40:31;;;;;;;3.22;1.90;;;;;;;;;;5039118;28;20067;-69
2022/08/05 07:42:56;;;;;;;4.68;2.40;;;;;;;;;;5035926;28;20049;-68
2022/08/05 07:45:22;;;;;;;3.90;1.98;;;;;;;;;;5035436;28;20087;-69
2022/08/05 07:47:48;;;;;;;4.00;2.20;;;;;;;;;;5034404;28;20044;-69
2022/08/05 07:50:13;;;;;;;5.03;1.90;;;;;;;;;;5035471;28;20453;-69
2022/08/05 07:52:40;;;;;;;5.82;1.92;;;;;;;;;;5036117;28;20123;-68
2022/08/05 07:55:06;;;;;;;2.45;2.00;;;;;;;;;;5035246;28;20044;-69
2022/08/05 07:57:32;;;;;;;4.00;2.08;;;;;;;;;;5036868;28;20091;-69
2022/08/05 07:59:57;;;;;;;3.10;2.03;;;;;;;;;;5040205;28;20045;-70
2022/08/05 08:02:27;;;;;;;6.35;2.30;;;;;;;;;;5039908;28;20768;-69
2022/08/05 08:04:52;;;;;;;3.65;2.42;;;;;;;;;;5040025;28;20119;-68
2022/08/05 08:07:19;;;;;;;4.60;2.65;;;;;;;;;;5039432;28;20136;-69
2022/08/05 08:09:46;;;;;;;2.45;2.03;;;;;;;;;;5037391;28;20524;-69
2022/08/05 08:12:12;;;;;;;2.20;2.00;;;;;;;;;;5038688;28;20037;-70
2022/08/05 08:14:38;;;;;;;3.50;2.30;;;;;;;;;;5033456;28;20199;-70
2022/08/05 08:17:04;;;;;;;2.75;2.08;;;;;;;;;;5037115;28;20045;-69
2022/08/05 08:19:29;;;;;;;4.03;2.22;;;;;;;;;;5038748;28;20051;-73
2022/08/05 08:21:55;;;;;;;2.25;2.00;;;;;;;;;;5041642;28;20048;-70
2022/08/05 08:24:20;;;;;;;6.75;2.45;;;;;;;;;;5041333;28;20102;-69
2022/08/05 08:26:46;;;;;;;2.38;2.17;;;;;;;;;;5042690;28;20060;-69
2022/08/05 08:29:11;;;;;;;3.85;2.20;;;;;;;;;;5039353;28;20073;-69
2022/08/05 08:31:36;;;;;;;5.38;2.30;;;;;;;;;;5040256;28;20123;-69
2022/08/05 08:34:02;;;;;;;10.65;2.40;;;;;;;;;;5042332;28;20055;-69
2022/08/05 08:36:27;;;;;;;9.05;2.22;;;;;;;;;;5043402;28;20388;-70
2022/08/05 08:38:54;;;;;;;2.40;2.20;;;;;;;;;;5042791;28;20037;-69
2022/08/05 08:41:21;;;;;;;7.05;2.35;;;;;;;;;;5043060;28;20122;-69
2022/08/05 08:43:49;;;;;;;5.82;2.33;;;;;;;;;;5043211;28;20163;-69
2022/08/05 08:46:16;;;;;;;3.83;2.50;;;;;;;;;;5042949;28;20063;-69
2022/08/05 08:48:45;;;;;;;3.03;2.50;;;;;;;;;;5043075;28;20101;-70
2022/08/05 08:51:11;;;;;;;3.85;2.45;;;;;;;;;;5043121;28;20183;-70
2022/08/05 08:53:37;;;;;;;3.50;2.63;;;;;;;;;;5042958;28;20071;-71
2022/08/05 08:56:03;;;;;;;3.03;2.60;;;;;;;;;;5043317;28;20053;-71
2022/08/05 08:58:30;;;;;;;7.28;2.70;;;;;;;;;;5043292;28;20150;-70
2022/08/05 09:00:56;;;;;;;10.68;3.08;;;;;;;;;;5043372;28;20072;-70
2022/08/05 09:03:23;;;;;;;5.60;2.67;;;;;;;;;;5042706;28;20361;-70
2022/08/05 09:05:48;;;;;;;4.80;2.60;;;;;;;;;;5043127;28;20044;-70
2022/08/05 09:08:14;;;;;;;8.10;2.80;;;;;;;;;;5040263;28;20049;-70
2022/08/05 09:10:40;;;;;;;6.40;2.70;;;;;;;;;;5041330;28;20119;-71
2022/08/05 09:13:06;;;;;;;3.75;2.90;;;;;;;;;;5041063;28;20048;-69
2022/08/05 09:15:32;;;;;;;5.68;2.83;;;;;;;;;;5040331;28;20033;-69
2022/08/05 09:17:58;;;;;;;7.38;3.08;;;;;;;;;;5041294;28;20044;-71
2022/08/05 09:20:23;;;;;;;3.95;3.10;;;;;;;;;;5041074;28;20102;-70
2022/08/05 09:23:01;;;;;;;9.30;3.10;;;;;;;;;;5041626;28;20124;-70
2022/08/05 09:25:26;;;;;;;3.90;2.75;;;;;;;;;;5040395;28;20060;-68
2022/08/05 09:27:52;;;;;;;6.30;2.88;;;;;;;;;;5041559;28;20049;-71
2022/08/05 09:30:17;;;;;;;3.33;3.03;;;;;;;;;;5039109;28;20086;-69
2022/08/05 09:32:43;;;;;;;9.25;3.30;;;;;;;;;;5041303;28;20131;-69
2022/08/05 09:35:10;;;;;;;8.05;3.17;;;;;;;;;;5041743;28;20060;-70
2022/08/05 09:37:36;;;;;;;18.00;3.10;;;;;;;;;;5038492;28;20974;-71
2022/08/05 09:40:02;;;;;;;3.30;3.00;;;;;;;;;;5039758;28;20045;-68
2022/08/05 09:42:39;;;;;;;6.25;3.05;;;;;;;;;;5040457;28;20419;-70
2022/08/05 09:45:06;;;;;;;5.28;2.78;;;;;;;;;;5041225;28;20075;-71
2022/08/05 09:47:31;;;;;;;5.15;3.30;;;;;;;;;;5039626;28;20139;-69
2022/08/05 09:49:57;;;;;;;3.78;2.90;;;;;;;;;;5039765;28;20128;-72
2022/08/05 09:52:34;;;;;;;4.43;3.17;;;;;;;;;;5040683;28;20067;-71
2022/08/05 09:55:09;;;;;;;3.72;3.08;;;;;;;;;;5040717;28;20388;-71
2022/08/05 09:57:39;;;;;;;8.85;3.38;;;;;;;;;;5039316;28;20048;-72
2022/08/05 10:00:09;;;;;;;13.05;3.30;;;;;;;;;;5039883;28;20049;-70
2022/08/05 10:02:40;;;;;;;7.57;3.22;;;;;;;;;;5039976;28;20167;-71
2022/08/05 10:05:10;;;;;;;5.47;2.80;;;;;;;;;;5040482;28;20964;-71
2022/08/05 10:08:02;;;;;;;8.32;2.88;;;;;;;;;;5039431;28;20522;-72
2022/08/05 10:10:35;;;;;;;11.52;3.00;;;;;;;;;;5038837;28;20136;-72
2022/08/05 10:13:04;;;;;;;9.98;2.80;;;;;;;;;;5040868;28;20045;-71
2022/08/05 10:15:32;;;;;;;5.20;2.72;;;;;;;;;;5039519;28;20041;-69
2022/08/05 10:18:21;;;;;;;7.55;2.80;;;;;;;;;;5038789;28;20060;-70
2022/08/05 10:21:02;;;;;;;4.95;2.83;;;;;;;;;;5039707;28;20040;-70
2022/08/05 10:23:33;;;;;;;8.13;2.90;;;;;;;;;;5040134;28;20036;-69
2022/08/05 10:26:01;;;;;;;11.73;3.38;;;;;;;;;;5039706;28;20151;-70
2022/08/05 10:28:28;;;;;;;9.52;3.00;;;;;;;;;;5038703;28;20052;-71
2022/08/05 10:30:54;;;;;;;4.25;2.60;;;;;;;;;;5039523;28;20091;-70
2022/08/05 10:33:22;;;;;;;3.47;2.67;;;;;;;;;;5039648;28;20116;-72
2022/08/05 10:35:49;;;;;;;8.70;3.15;;;;;;;;;;5039789;28;20052;-71
2022/08/05 10:38:15;;;;;;;5.28;3.15;;;;;;;;;;5039822;28;20053;-72
2022/08/05 10:40:53;;;;;;;7.32;2.72;;;;;;;;;;5039455;28;20056;-71
2022/08/05 10:43:34;;;;;;;5.15;2.50;;;;;;;;;;5038820;28;20123;-70
2022/08/05 10:46:08;;;;;;;5.88;2.67;;;;;;;;;;5039338;28;20045;-71
2022/08/05 10:48:41;;;;;;;6.10;2.60;;;;;;;;;;5037125;28;20048;-71
2022/08/05 10:51:20;;;;;;;4.35;2.53;;;;;;;;;;5039351;28;20051;-71
2022/08/05 10:53:54;;;;;;;5.10;2.90;;;;;;;;;;5038505;28;20122;-70
2022/08/05 10:56:23;;;;;;;6.72;2.72;;;;;;;;;;5040648;28;20053;-71
2022/08/05 10:59:03;;;;;;;5.22;2.50;;;;;;;;;;5040713;28;20045;-71
2022/08/05 11:01:29;;;;;;;8.38;2.80;;;;;;;;;;5040592;28;20037;-71
2022/08/05 11:04:11;;;;;;;6.25;3.00;;;;;;;;;;5040322;28;20049;-71
2022/08/05 11:07:05;;;;;;;5.35;2.60;;;;;;;;;;5041471;28;20065;-71
2022/08/05 11:09:45;;;;;;;8.75;2.45;;;;;;;;;;5031168;28;20045;-71
2022/08/05 11:12:44;;;;;;;9.25;2.97;;;;;;;;;;5040923;28;20049;-72
2022/08/05 11:15:15;;;;;;;6.18;2.42;;;;;;;;;;5031574;28;20045;-71
2022/08/05 11:17:42;;;;;;;10.15;2.60;;;;;;;;;;5040094;28;20053;-71
2022/08/05 11:20:33;;;;;;;4.72;2.58;;;;;;;;;;5040372;28;20475;-71
2022/08/05 11:22:59;;;;;;;7.28;2.50;;;;;;;;;;5038929;28;20044;-70
2022/08/05 11:25:34;;;;;;;8.10;2.58;;;;;;;;;;5040024;28;20064;-69
2022/08/05 11:28:08;;;;;;;7.60;2.70;;;;;;;;;;5038015;28;20140;-70
2022/08/05 11:30:55;;;;;;;14.60;2.65;;;;;;;;;;5040061;28;20047;-70
2022/08/05 11:33:31;;;;;;;8.68;2.58;;;;;;;;;;5040023;28;20066;-70
2022/08/05 11:35:59;;;;;;;11.10;2.40;;;;;;;;;;5039445;28;20048;-71
2022/08/05 11:38:42;;;;;;;6.65;2.50;;;;;;;;;;5039610;28;20056;-71
2022/08/05 11:41:21;;;;;;;10.60;2.88;;;;;;;;;;5039052;28;20076;-70
2022/08/05 11:44:00;;;;;;;6.82;2.30;;;;;;;;;;5039612;28;20537;-71
2022/08/05 11:46:31;;;;;;;3.80;2.22;;;;;;;;;;5040118;28;20037;-70
2022/08/05 11:48:58;;;;;;;7.95;2.60;;;;;;;;;;5039731;28;20039;-69
2022/08/05 11:51:25;;;;;;;8.82;2.58;;;;;;;;;;5041174;28;20052;-70
2022/08/05 11:53:51;;;;;;;5.35;2.47;;;;;;;;;;5039233;28;20052;-69
2022/08/05 11:56:17;;;;;;;6.80;2.38;;;;;;;;;;5040419;28;20522;-69
2022/08/05 11:58:45;;;;;;;8.05;2.15;;;;;;;;;;5039848;28;20064;-70
2022/08/05 12:01:14;;;;;;;7.97;2.33;;;;;;;;;;5040101;28;20044;-70
2022/08/05 12:03:51;;;;;;;7.13;2.25;;;;;;;;;;5039717;28;20177;-70
2022/08/05 12:06:20;;;;;;;4.45;2.10;;;;;;;;;;5039914;28;20128;-69
2022/08/05 12:08:53;;;;;;;12.43;2.35;;;;;;;;;;5040633;28;20438;-71
2022/08/05 12:11:21;;;;;;;3.28;2.10;;;;;;;;;;5040193;28;20056;-72
2022/08/05 12:14:00;;;;;;;5.82;2.40;;;;;;;;;;5039935;28;20079;-70
2022/08/05 12:16:34;;;;;;;5.82;2.10;;;;;;;;;;5038187;28;20115;-70
2022/08/05 12:19:00;;;;;;;2.58;2.10;;;;;;;;;;5038520;28;20102;-70
2022/08/05 12:21:32;;;;;;;4.95;1.90;;;;;;;;;;5037577;28;20143;-69
2022/08/05 12:24:03;;;;;;;5.22;2.08;;;;;;;;;;5037781;28;20049;-70
2022/08/05 12:26:34;;;;;;;7.68;2.22;;;;;;;;;;5037341;28;20055;-70
2022/08/05 12:29:00;;;;;;;6.05;2.33;;;;;;;;;;5039935;28;20041;-71
2022/08/05 12:31:25;;;;;;;7.18;2.53;;;;;;;;;;5039738;28;20434;-71
2022/08/05 12:33:53;;;;;;;5.65;2.33;;;;;;;;;;5039143;28;20056;-71
2022/08/05 12:36:19;;;;;;;7.72;2.10;;;;;;;;;;5039060;28;20041;-70
2022/08/05 12:38:45;;;;;;;9.98;2.47;;;;;;;;;;5034063;28;20125;-70
2022/08/05 12:41:12;;;;;;;6.82;2.35;;;;;;;;;;5038118;28;20049;-69
2022/08/05 12:43:55;;;;;;;8.35;2.20;;;;;;;;;;5036765;28;20045;-70
2022/08/05 12:46:22;;;;;;;4.07;2.15;;;;;;;;;;5037339;28;20167;-70
2022/08/05 12:48:56;;;;;;;8.07;2.47;;;;;;;;;;5036355;28;20051;-70
2022/08/05 12:51:21;;;;;;;5.80;2.40;;;;;;;;;;5038092;28;20029;-71
2022/08/05 12:53:47;;;;;;;16.67;2.53;;;;;;;;;;5037969;28;20049;-72
2022/08/05 12:56:22;;;;;;;4.65;2.00;;;;;;;;;;5037179;28;20044;-71
2022/08/05 12:59:11;;;;;;;9.48;2.50;;;;;;;;;;5037191;28;20055;-70
2022/08/05 13:01:37;;;;;;;5.00;1.90;;;;;;;;;;5030893;28;20049;-70
2022/08/05 13:04:04;;;;;;;4.40;1.90;;;;;;;;;;5037575;28;20049;-70
2022/08/05 13:06:29;;;;;;;8.07;2.05;;;;;;;;;;5040191;28;21294;-69
2022/08/05 13:08:55;;;;;;;4.32;2.03;;;;;;;;;;5041271;28;20048;-70
2022/08/05 13:11:22;;;;;;;3.53;2.17;;;;;;;;;;5040473;28;20041;-70
2022/08/05 13:13:50;;;;;;;6.72;1.88;;;;;;;;;;5041306;28;20048;-69
2022/08/05 13:16:18;;;;;;;4.90;2.13;;;;;;;;;;5041157;28;20425;-69
2022/08/05 13:18:54;;;;;;;6.60;1.98;;;;;;;;;;5040921;28;20055;-69
2022/08/05 13:21:19;;;;;;;2.90;1.88;;;;;;;;;;5040769;28;20045;-70
2022/08/05 13:23:45;;;;;;;7.95;2.28;;;;;;;;;;5041097;28;20045;-69
2022/08/05 13:26:10;;;;;;;5.38;2.10;;;;;;;;;;5040894;28;20063;-70
2022/08/05 13:28:35;;;;;;;4.90;2.00;;;;;;;;;;5041084;28;20388;-70
2022/08/05 13:31:01;;;;;;;4.32;1.75;;;;;;;;;;5041546;28;20045;-69
2022/08/05 13:33:26;;;;;;;5.13;1.98;;;;;;;;;;5040945;28;20040;-69
2022/08/05 13:35:52;;;;;;;7.65;2.10;;;;;;;;;;5039851;28;20795;-71
2022/08/05 13:38:19;;;;;;;6.55;2.28;;;;;;;;;;5041049;28;20596;-70
2022/08/05 13:40:45;;;;;;;7.65;2.13;;;;;;;;;;5041067;28;20052;-70
2022/08/05 13:43:10;;;;;;;5.47;1.88;;;;;;;;;;5040632;28;20060;-71
2022/08/05 13:45:36;;;;;;;6.18;1.92;;;;;;;;;;5040675;28;20135;-70
2022/08/05 13:48:01;;;;;;;7.20;2.17;;;;;;;;;;5041157;28;20045;-71
2022/08/05 13:50:27;;;;;;;7.20;2.13;;;;;;;;;;5040580;28;20048;-70
2022/08/05 13:52:52;;;;;;;11.07;2.00;;;;;;;;;;5042438;28;20041;-70
2022/08/05 13:55:18;;;;;;;8.75;2.40;;;;;;;;;;5041437;28;20187;-71
2022/08/05 13:57:43;;;;;;;3.85;1.95;;;;;;;;;;5041500;28;20425;-70
2022/08/05 14:00:09;;;;;;;5.05;2.20;;;;;;;;;;5021668;28;20121;-69
2022/08/05 14:02:35;;;;;;;9.40;1.90;;;;;;;;;;5041555;28;20041;-69
2022/08/05 14:05:09;;;;;;;5.55;2.17;;;;;;;;;;5042168;28;20056;-69
2022/08/05 14:07:40;;;;;;;6.35;1.92;;;;;;;;;;5041940;28;20043;-71
2022/08/05 14:10:17;;;;;;;5.90;2.05;;;;;;;;;;5041660;28;20048;-71
2022/08/05 14:12:43;;;;;;;5.30;2.10;;;;;;;;;;5041970;28;20414;-70
2022/08/05 14:15:10;;;;;;;2.92;1.85;;;;;;;;;;5041782;28;20443;-71
2022/08/05 14:17:36;;;;;;;6.60;2.15;;;;;;;;;;5040786;28;20093;-71
2022/08/05 14:20:04;;;;;;;3.47;2.20;;;;;;;;;;5041823;28;20491;-70
2022/08/05 14:22:29;;;;;;;4.55;2.17;;;;;;;;;;5041891;28;20187;-72
2022/08/05 14:24:54;;;;;;;4.15;2.30;;;;;;;;;;5041579;28;20532;-71
2022/08/05 14:27:20;;;;;;;5.68;2.20;;;;;;;;;;5040773;28;20060;-72
2022/08/05 14:29:45;;;;;;;3.55;2.20;;;;;;;;;;5041686;28;20524;-71
2022/08/05 14:32:11;;;;;;;3.63;2.28;;;;;;;;;;5041707;28;20605;-71
2022/08/05 14:34:36;;;;;;;2.78;2.10;;;;;;;;;;5041673;28;20045;-71
2022/08/05 14:37:03;;;;;;;5.15;1.92;;;;;;;;;;5041586;28;20160;-70
2022/08/05 14:39:28;;;;;;;5.78;2.20;;;;;;;;;;5039542;28;20044;-69
2022/08/05 14:41:54;;;;;;;5.65;1.92;;;;;;;;;;5040297;28;20399;-70
2022/08/05 14:44:19;;;;;;;3.58;2.42;;;;;;;;;;5041602;28;20053;-69
2022/08/05 14:46:45;;;;;;;8.40;2.00;;;;;;;;;;5040990;28;20140;-70
2022/08/05 14:49:10;;;;;;;6.20;1.92;;;;;;;;;;5040860;28;20061;-70
2022/08/05 14:51:37;;;;;;;7.22;2.08;;;;;;;;;;5041237;28;20039;-70
2022/08/05 14:54:04;;;;;;;5.65;1.90;;;;;;;;;;5040869;28;20087;-70
2022/08/05 14:56:29;;;;;;;9.88;2.33;;;;;;;;;;5040794;28;20132;-70